createdAt,value
2018-04-11T00:00:17.330Z,57.15
2018-04-11T00:02:45.696Z,57.05
2018-04-11T00:05:16.065Z,56.88
2018-04-11T00:07:44.210Z,56.89
2018-04-11T00:10:12.577Z,57.01
2018-04-11T00:12:40.965Z,57.28
2018-04-11T00:15:14.263Z,57.26
2018-04-11T00:17:42.668Z,57.24
2018-04-11T00:20:15.280Z,57.21
2018-04-11T00:22:43.685Z,57.20
2018-04-11T00:25:12.716Z,57.19
2018-04-11T00:27:41.087Z,57.32
2018-04-11T00:30:15.217Z,57.51
2018-04-11T00:32:43.593Z,57.45
2018-04-11T00:35:14.465Z,57.95
2018-04-11T00:37:42.818Z,58.40
2018-04-11T00:40:15.451Z,58.51
2018-04-11T00:42:43.816Z,58.46
2018-04-11T00:45:15.690Z,58.45
2018-04-11T00:47:44.061Z,58.60
2018-04-11T00:50:12.447Z,58.65
2018-04-11T00:52:40.250Z,58.89
2018-04-11T00:55:11.017Z,59.38
2018-04-11T00:57:39.401Z,60.82
2018-04-11T01:00:11.249Z,61.94
2018-04-11T01:02:39.406Z,62.51
2018-04-11T01:05:08.287Z,62.94
2018-04-11T01:07:36.659Z,63.18
2018-04-11T01:10:10.922Z,63.27
2018-04-11T01:12:39.314Z,63.29
2018-04-11T01:15:14.661Z,63.07
2018-04-11T01:17:43.043Z,63.24
2018-04-11T01:20:12.715Z,63.34
2018-04-11T01:22:41.072Z,63.46
2018-04-11T01:25:12.513Z,63.62
2018-04-11T01:27:40.876Z,63.55
2018-04-11T01:30:15.660Z,63.48
2018-04-11T01:32:44.073Z,63.55
2018-04-11T01:35:15.182Z,63.67
2018-04-11T01:37:43.555Z,63.69
2018-04-11T01:40:16.380Z,63.78
2018-04-11T01:42:44.753Z,63.51
2018-04-11T01:45:18.578Z,63.50
2018-04-11T01:47:46.963Z,63.87
2018-04-11T01:50:17.142Z,64.28
2018-04-11T01:52:45.515Z,64.09
2018-04-11T01:55:13.882Z,63.99
2018-04-11T01:57:42.292Z,63.63
2018-04-11T02:00:15.071Z,63.96
2018-04-11T02:02:43.444Z,64.01
2018-04-11T02:05:13.281Z,64.38
2018-04-11T02:07:41.666Z,64.71
2018-04-11T02:10:14.007Z,64.97
2018-04-11T02:12:42.385Z,65.04
2018-04-11T02:15:10.534Z,64.80
2018-04-11T02:17:38.669Z,64.57
2018-04-11T02:20:14.588Z,64.25
2018-04-11T02:22:42.977Z,64.54
2018-04-11T02:25:13.190Z,64.99
2018-04-11T02:27:41.616Z,66.03
2018-04-11T02:30:18.928Z,66.59
2018-04-11T02:32:47.285Z,67.02
2018-04-11T02:35:15.665Z,67.50
2018-04-11T02:37:44.052Z,67.79
2018-04-11T02:40:15.912Z,68.00
2018-04-11T02:42:44.400Z,68.49
2018-04-11T02:45:16.500Z,68.95
2018-04-11T02:47:44.865Z,68.79
2018-04-11T02:50:17.713Z,68.88
2018-04-11T02:52:46.070Z,68.86
2018-04-11T02:55:17.755Z,69.08
2018-04-11T02:57:46.119Z,69.00
2018-04-11T03:00:16.604Z,68.78
2018-04-11T03:02:44.970Z,68.53
2018-04-11T03:05:16.458Z,69.08
2018-04-11T03:07:44.843Z,69.34
2018-04-11T03:10:15.036Z,70.10
2018-04-11T03:12:43.397Z,70.67
2018-04-11T03:15:19.425Z,71.00
2018-04-11T03:17:47.793Z,71.18
2018-04-11T03:20:16.150Z,71.02
2018-04-11T03:22:44.514Z,71.10
2018-04-11T03:25:13.364Z,71.29
2018-04-11T03:27:41.764Z,71.34
2018-04-11T03:30:12.861Z,71.80
2018-04-11T03:32:41.243Z,71.76
2018-04-11T03:35:12.996Z,71.62
2018-04-11T03:37:41.380Z,71.89
2018-04-11T03:40:15.330Z,72.09
2018-04-11T03:42:43.705Z,72.24
2018-04-11T03:45:14.802Z,72.27
2018-04-11T03:47:43.191Z,72.42
2018-04-11T03:50:14.236Z,72.46
2018-04-11T03:52:42.645Z,72.53
2018-04-11T03:55:16.743Z,72.55
2018-04-11T03:57:45.116Z,72.80
2018-04-11T04:00:13.497Z,72.80
2018-04-11T04:02:41.873Z,72.58
2018-04-11T04:05:14.011Z,72.43
2018-04-11T04:07:42.434Z,72.62
2018-04-11T04:10:15.610Z,72.92
2018-04-11T04:12:43.980Z,73.29
2018-04-11T04:15:23.808Z,73.42
2018-04-11T04:18:03.477Z,73.44
2018-04-11T04:20:37.415Z,73.89
2018-04-11T04:23:05.851Z,74.19
2018-04-11T04:25:33.993Z,74.04
2018-04-11T04:28:02.373Z,73.93
2018-04-11T04:30:30.783Z,74.06
2018-04-11T04:32:58.926Z,73.97
2018-04-11T04:35:27.286Z,74.21
2018-04-11T04:37:55.678Z,74.05
2018-04-11T04:40:24.046Z,73.76
2018-04-11T04:42:52.419Z,73.48
2018-04-11T04:45:20.796Z,73.30
2018-04-11T04:47:49.159Z,73.22
2018-04-11T04:50:17.532Z,73.43
2018-04-11T04:52:45.914Z,73.79
2018-04-11T04:55:14.345Z,74.09
2018-04-11T04:57:42.858Z,74.18
2018-04-11T05:00:13.879Z,74.15
2018-04-11T05:02:42.059Z,74.15
2018-04-11T05:05:15.075Z,74.01
2018-04-11T05:07:43.465Z,74.08
2018-04-11T05:10:11.838Z,74.36
2018-04-11T05:12:40.222Z,74.46
2018-04-11T05:15:15.543Z,74.18
2018-04-11T05:17:43.926Z,73.89
2018-04-11T05:20:13.745Z,73.72
2018-04-11T05:22:42.113Z,73.65
2018-04-11T05:25:11.452Z,73.41
2018-04-11T05:27:39.845Z,73.00
2018-04-11T05:30:11.847Z,72.93
2018-04-11T05:32:39.985Z,73.03
2018-04-11T05:35:08.845Z,72.86
2018-04-11T05:37:37.220Z,72.59
2018-04-11T05:42:39.941Z,71.89
2018-04-11T05:45:09.444Z,71.82
2018-04-11T05:47:37.825Z,71.67
2018-04-11T05:50:08.697Z,71.48
2018-04-11T05:52:37.108Z,71.39
2018-04-11T05:55:10.524Z,71.11
2018-04-11T05:57:38.909Z,71.15
2018-04-11T06:00:08.742Z,70.82
2018-04-11T06:02:37.116Z,70.30
2018-04-11T06:05:08.446Z,69.82
2018-04-11T06:07:36.821Z,69.22
2018-04-11T06:10:06.868Z,69.00
2018-04-11T06:12:35.237Z,68.60
2018-04-11T06:15:03.610Z,68.29
2018-04-11T06:17:31.967Z,67.74
2018-04-11T06:20:00.476Z,67.35
2018-04-11T06:22:28.856Z,66.97
2018-04-11T06:24:57.222Z,66.59
2018-04-11T06:27:25.604Z,66.04
2018-04-11T06:29:54.029Z,65.78
2018-04-11T06:32:22.451Z,65.51
2018-04-11T06:34:50.970Z,64.70
2018-04-11T06:37:19.371Z,64.76
2018-04-11T06:39:48.417Z,64.26
2018-04-11T06:42:17.097Z,63.99
2018-04-11T06:44:45.499Z,63.06
2018-04-11T06:47:13.871Z,63.06
2018-04-11T06:49:42.244Z,63.25
2018-04-11T06:52:10.616Z,62.57
2018-04-11T06:54:39.002Z,62.29
2018-04-11T06:57:07.372Z,62.03
2018-04-11T06:59:35.737Z,61.52
2018-04-11T07:02:04.140Z,61.22
2018-04-11T07:04:32.582Z,60.77
2018-04-11T07:07:00.966Z,60.57
2018-04-11T07:09:29.366Z,60.36
2018-04-11T07:11:57.754Z,60.28
2018-04-11T07:14:26.142Z,59.92
2018-04-11T07:16:54.547Z,59.67
2018-04-11T07:19:22.913Z,59.15
2018-04-11T07:21:51.318Z,59.12
2018-04-11T07:24:19.721Z,58.56
2018-04-11T07:26:48.125Z,58.58
2018-04-11T07:29:16.508Z,58.16
2018-04-11T07:31:44.899Z,58.09
2018-04-11T07:34:13.282Z,56.85
2018-04-11T07:36:41.653Z,56.60
2018-04-11T07:39:10.029Z,56.12
2018-04-11T07:41:38.413Z,55.40
2018-04-11T07:44:06.784Z,55.50
2018-04-11T07:46:35.157Z,55.42
2018-04-11T07:49:03.533Z,55.02
2018-04-11T07:51:31.910Z,54.33
2018-04-11T07:54:00.304Z,53.92
2018-04-11T07:56:28.674Z,52.97
2018-04-11T07:58:57.075Z,53.25
2018-04-11T08:01:25.471Z,52.71
2018-04-11T08:03:53.849Z,52.11
2018-04-11T08:06:22.245Z,51.78
2018-04-11T08:08:50.622Z,51.88
2018-04-11T08:11:19.009Z,51.04
2018-04-11T08:13:47.377Z,50.99
2018-04-11T08:16:15.765Z,51.88
2018-04-11T08:18:44.138Z,52.04
2018-04-11T08:21:12.302Z,52.12
2018-04-11T08:23:39.889Z,51.96
2018-04-11T08:26:08.035Z,51.79
2018-04-11T08:28:36.173Z,52.05
2018-04-11T08:31:04.550Z,51.38
2018-04-11T08:33:32.916Z,51.75
2018-04-11T08:36:01.286Z,51.76
2018-04-11T08:38:29.676Z,51.76
2018-04-11T08:40:58.066Z,51.66
2018-04-11T08:43:26.475Z,52.24
2018-04-11T08:45:55.345Z,52.52
2018-04-11T08:48:23.714Z,52.74
2018-04-11T08:50:52.291Z,52.32
2018-04-11T08:53:20.676Z,52.51
2018-04-11T08:55:49.058Z,52.73
2018-04-11T08:58:17.437Z,52.18
2018-04-11T09:00:45.832Z,52.21
2018-04-11T09:03:14.209Z,51.79
2018-04-11T09:05:42.358Z,51.68
2018-04-11T09:08:10.486Z,50.95
2018-04-11T09:10:38.894Z,50.99
2018-04-11T09:13:07.273Z,50.82
2018-04-11T09:15:35.652Z,49.94
2018-04-11T09:18:04.057Z,49.02
2018-04-11T09:20:32.449Z,48.72
2018-04-11T09:23:00.804Z,47.90
2018-04-11T09:25:29.219Z,47.22
2018-04-11T09:27:57.622Z,46.76
2018-04-11T09:30:26.036Z,45.91
2018-04-11T09:32:54.434Z,45.74
2018-04-11T09:35:22.811Z,45.21
2018-04-11T09:37:51.200Z,44.24
2018-04-11T09:40:19.576Z,44.06
2018-04-11T09:42:47.941Z,43.48
2018-04-11T09:45:16.320Z,43.67
2018-04-11T09:47:44.701Z,43.38
2018-04-11T09:50:14.431Z,41.46
2018-04-11T09:52:42.909Z,40.04
2018-04-11T09:55:11.879Z,38.62
2018-04-11T09:57:40.256Z,36.52
2018-04-11T10:00:13.003Z,34.64
2018-04-11T10:02:41.142Z,32.96
2018-04-11T10:05:12.690Z,34.00
2018-04-11T10:07:42.708Z,32.69
2018-04-11T10:10:16.326Z,32.19
2018-04-11T10:12:44.686Z,31.86
2018-04-11T10:15:13.582Z,31.26
2018-04-11T10:17:41.969Z,31.45
2018-04-11T10:20:16.623Z,31.12
2018-04-11T10:22:44.764Z,30.42
2018-04-11T10:25:13.143Z,29.99
2018-04-11T10:27:41.521Z,28.07
2018-04-11T10:30:11.237Z,28.28
2018-04-11T10:32:39.601Z,27.73
2018-04-11T10:35:12.311Z,28.30
2018-04-11T10:37:40.705Z,29.66
2018-04-11T10:40:16.358Z,30.46
2018-04-11T10:42:44.730Z,29.74
2018-04-11T10:45:17.005Z,28.12
2018-04-11T10:47:45.373Z,28.13
2018-04-11T10:50:15.186Z,27.81
2018-04-11T10:52:43.793Z,27.79
2018-04-11T10:55:17.889Z,28.30
2018-04-11T10:57:46.264Z,28.32
2018-04-11T11:00:14.640Z,29.04
2018-04-11T11:02:43.162Z,30.02
2018-04-11T11:05:12.547Z,30.71
2018-04-11T11:07:40.908Z,31.81
2018-04-11T11:10:11.893Z,32.15
2018-04-11T11:12:40.031Z,30.75
2018-04-11T11:15:15.779Z,30.43
2018-04-11T11:17:44.164Z,30.17
2018-04-11T11:20:17.934Z,29.77
2018-04-11T11:22:46.576Z,29.74
2018-04-11T11:25:14.557Z,29.19
2018-04-11T11:27:42.698Z,29.41
2018-04-11T11:30:16.122Z,29.41
2018-04-11T11:32:44.552Z,28.96
2018-04-11T11:35:12.729Z,28.48
2018-04-11T11:37:41.117Z,28.07
2018-04-11T11:40:09.490Z,28.10
2018-04-11T11:42:37.908Z,27.00
2018-04-11T11:45:15.102Z,27.00
2018-04-11T11:47:43.467Z,25.81
2018-04-11T11:50:12.214Z,25.81
2018-04-11T11:52:40.590Z,25.48
2018-04-11T11:55:09.042Z,25.12
2018-04-11T11:57:37.405Z,24.52
2018-04-11T12:00:06.408Z,24.61
2018-04-11T12:02:35.122Z,24.01
2018-04-11T12:05:03.391Z,23.53
2018-04-11T12:07:31.769Z,23.50
2018-04-11T12:10:00.153Z,23.88
2018-04-11T12:12:28.600Z,23.69
2018-04-11T12:14:56.977Z,23.51
2018-04-11T12:17:25.345Z,23.44
2018-04-11T12:19:54.058Z,23.21
2018-04-11T12:22:22.433Z,23.27
2018-04-11T12:24:50.793Z,23.05
2018-04-11T12:27:19.161Z,23.51
2018-04-11T12:29:47.599Z,23.26
2018-04-11T12:32:16.007Z,23.57
2018-04-11T12:34:44.405Z,24.11
2018-04-11T12:37:12.787Z,24.63
2018-04-11T12:39:41.467Z,24.00
2018-04-11T12:42:09.841Z,24.22
2018-04-11T12:44:38.206Z,24.54
2018-04-11T12:47:06.591Z,24.34
2018-04-11T12:49:34.956Z,24.77
2018-04-11T12:52:03.343Z,24.61
2018-04-11T12:54:31.478Z,24.25
2018-04-11T12:56:59.840Z,24.81
2018-04-11T12:59:28.241Z,24.47
2018-04-11T13:01:56.609Z,24.73
2018-04-11T13:04:24.990Z,24.80
2018-04-11T13:06:53.353Z,24.07
2018-04-11T13:09:21.789Z,24.32
2018-04-11T13:11:49.937Z,24.48
2018-04-11T13:14:18.085Z,25.46
2018-04-11T13:16:46.456Z,25.87
2018-04-11T13:19:14.604Z,26.38
2018-04-11T13:21:42.751Z,25.37
2018-04-11T13:24:11.105Z,25.13
2018-04-11T13:26:39.486Z,25.02
2018-04-11T13:29:07.850Z,24.92
2018-04-11T13:31:36.235Z,25.57
2018-04-11T13:34:04.599Z,25.98
2018-04-11T13:36:33.413Z,25.66
2018-04-11T13:39:01.573Z,26.21
2018-04-11T13:41:29.952Z,26.80
2018-04-11T13:43:58.105Z,27.09
2018-04-11T13:46:26.241Z,27.50
2018-04-11T13:48:54.386Z,30.83
2018-04-11T13:51:22.787Z,31.49
2018-04-11T13:53:50.922Z,32.53
2018-04-11T13:56:19.435Z,32.88
2018-04-11T13:58:47.946Z,33.35
2018-04-11T14:01:16.323Z,34.45
2018-04-11T14:03:44.707Z,34.26
2018-04-11T14:06:12.761Z,35.01
2018-04-11T14:08:40.901Z,34.86
2018-04-11T14:11:09.277Z,35.41
2018-04-11T14:13:37.419Z,35.07
2018-04-11T14:16:05.578Z,35.47
2018-04-11T14:18:33.955Z,35.60
2018-04-11T14:21:02.345Z,35.78
2018-04-11T14:23:30.733Z,35.47
2018-04-11T14:25:58.902Z,35.89
2018-04-11T14:28:27.035Z,34.63
2018-04-11T14:30:55.453Z,34.57
2018-04-11T14:33:23.822Z,34.24
2018-04-11T14:35:52.294Z,34.59
2018-04-11T14:38:20.696Z,34.82
2018-04-11T14:40:48.836Z,35.62
2018-04-11T14:43:17.201Z,34.98
2018-04-11T14:45:45.351Z,35.33
2018-04-11T14:48:13.501Z,35.11
2018-04-11T14:50:41.893Z,35.32
2018-04-11T14:53:10.258Z,35.02
2018-04-11T14:55:38.621Z,35.25
2018-04-11T14:58:07.010Z,35.37
2018-04-11T15:00:35.386Z,35.35
2018-04-11T15:03:03.765Z,35.52
2018-04-11T15:05:32.137Z,35.47
2018-04-11T15:08:00.511Z,35.59
2018-04-11T15:10:28.932Z,35.63
2018-04-11T15:12:57.319Z,35.91
2018-04-11T15:15:25.702Z,36.02
2018-04-11T15:17:54.096Z,36.24
2018-04-11T15:20:23.056Z,36.51
2018-04-11T15:22:51.449Z,36.67
2018-04-11T15:25:19.842Z,36.84
2018-04-11T15:27:48.210Z,37.02
2018-04-11T15:30:16.591Z,37.43
2018-04-11T15:32:44.973Z,37.56
2018-04-11T15:35:13.012Z,37.64
2018-04-11T15:37:41.383Z,37.53
2018-04-11T15:40:15.825Z,37.02
2018-04-11T15:42:44.228Z,37.01
2018-04-11T15:45:12.642Z,37.34
2018-04-11T15:47:41.033Z,37.54
2018-04-11T15:50:10.240Z,37.68
2018-04-11T15:52:38.611Z,37.96
2018-04-11T15:55:12.778Z,38.16
2018-04-11T15:57:41.153Z,38.44
2018-04-11T16:00:16.412Z,38.53
2018-04-11T16:02:44.773Z,38.45
2018-04-11T16:05:13.309Z,38.74
2018-04-11T16:07:41.705Z,38.87
2018-04-11T16:10:13.252Z,38.95
2018-04-11T16:12:41.632Z,39.08
2018-04-11T16:15:14.294Z,39.15
2018-04-11T16:17:42.673Z,39.00
2018-04-11T16:20:17.344Z,39.09
2018-04-11T16:22:45.705Z,39.44
2018-04-11T16:25:14.085Z,39.34
2018-04-11T16:27:42.465Z,39.42
2018-04-11T16:30:10.857Z,39.46
2018-04-11T16:32:39.218Z,39.30
2018-04-11T16:35:14.940Z,39.15
2018-04-11T16:37:43.343Z,39.14
2018-04-11T16:40:16.816Z,39.26
2018-04-11T16:42:45.197Z,39.32
2018-04-11T16:45:13.401Z,39.09
2018-04-11T16:47:41.775Z,39.19
2018-04-11T16:50:15.274Z,39.25
2018-04-11T16:52:43.465Z,39.31
2018-04-11T16:55:16.869Z,39.36
2018-04-11T16:57:45.249Z,39.34
2018-04-11T17:00:17.903Z,39.35
2018-04-11T17:02:46.645Z,39.36
2018-04-11T17:05:15.012Z,39.43
2018-04-11T17:07:43.392Z,39.48
2018-04-11T17:10:17.024Z,39.74
2018-04-11T17:12:45.425Z,39.92
2018-04-11T17:15:13.567Z,40.12
2018-04-11T17:17:41.948Z,40.29
2018-04-11T17:20:16.377Z,40.38
2018-04-11T17:22:55.672Z,40.63
2018-04-11T17:25:34.879Z,40.99
2018-04-11T17:28:14.171Z,41.11
2018-04-11T17:30:53.655Z,41.26
2018-04-11T17:33:22.051Z,41.32
2018-04-11T17:35:50.434Z,41.38
2018-04-11T17:38:18.801Z,41.29
2018-04-11T17:40:47.179Z,41.39
2018-04-11T17:43:15.840Z,41.26
2018-04-11T17:45:44.206Z,41.40
2018-04-11T17:48:12.586Z,41.41
2018-04-11T17:50:40.737Z,41.38
2018-04-11T17:53:09.139Z,41.51
2018-04-11T17:55:37.518Z,41.45
2018-04-11T17:58:05.899Z,41.43
2018-04-11T18:00:34.374Z,41.48
2018-04-11T18:03:03.033Z,41.42
2018-04-11T18:05:31.536Z,41.61
2018-04-11T18:07:59.924Z,41.71
2018-04-11T18:10:28.284Z,41.68
2018-04-11T18:12:56.661Z,41.84
2018-04-11T18:15:25.355Z,41.86
2018-04-11T18:17:53.726Z,41.89
2018-04-11T18:20:22.298Z,42.03
2018-04-11T18:22:50.678Z,41.94
2018-04-11T18:25:19.356Z,42.13
2018-04-11T18:27:47.740Z,42.15
2018-04-11T18:30:16.116Z,42.21
2018-04-11T18:32:44.495Z,42.37
2018-04-11T18:35:13.617Z,42.51
2018-04-11T18:37:43.407Z,42.52
2018-04-11T18:40:17.008Z,42.59
2018-04-11T18:42:45.410Z,42.79
2018-04-11T18:45:16.628Z,42.81
2018-04-11T18:47:45.015Z,42.88
2018-04-11T18:50:13.424Z,42.89
2018-04-11T18:52:41.792Z,43.03
2018-04-11T18:55:10.725Z,43.06
2018-04-11T18:57:39.097Z,42.95
2018-04-11T19:00:16.384Z,42.75
2018-04-11T19:02:44.773Z,43.00
2018-04-11T19:05:13.149Z,43.06
2018-04-11T19:07:41.533Z,43.09
2018-04-11T19:10:16.829Z,43.15
2018-04-11T19:12:45.202Z,43.33
2018-04-11T19:15:16.853Z,43.42
2018-04-11T19:17:45.221Z,43.58
2018-04-11T19:20:13.594Z,43.71
2018-04-11T19:22:41.966Z,43.88
2018-04-11T19:25:12.335Z,44.13
2018-04-11T19:27:40.849Z,44.33
2018-04-11T19:30:10.563Z,44.56
2018-04-11T19:32:38.707Z,44.69
2018-04-11T19:35:11.754Z,44.85
2018-04-11T19:37:40.150Z,45.08
2018-04-11T19:40:12.665Z,45.22
2018-04-11T19:42:41.527Z,45.30
2018-04-11T19:45:09.671Z,45.42
2018-04-11T19:47:38.046Z,45.53
2018-04-11T19:50:10.423Z,45.53
2018-04-11T19:52:38.946Z,45.82
2018-04-11T19:55:16.032Z,46.14
2018-04-11T19:57:44.408Z,46.35
2018-04-11T20:00:15.014Z,46.60
2018-04-11T20:02:43.389Z,46.74
2018-04-11T20:05:16.967Z,46.74
2018-04-11T20:07:45.346Z,46.76
2018-04-11T20:10:16.987Z,46.63
2018-04-11T20:12:45.386Z,46.86
2018-04-11T20:15:14.575Z,47.09
2018-04-11T20:17:42.721Z,47.28
2018-04-11T20:20:14.803Z,47.47
2018-04-11T20:22:43.183Z,48.09
2018-04-11T20:25:11.718Z,48.34
2018-04-11T20:27:40.091Z,48.32
2018-04-11T20:30:15.118Z,48.60
2018-04-11T20:32:43.514Z,49.16
2018-04-11T20:35:13.410Z,49.45
2018-04-11T20:37:41.809Z,49.65
2018-04-11T20:40:15.486Z,49.88
2018-04-11T20:42:43.857Z,49.91
2018-04-11T20:45:12.227Z,49.83
2018-04-11T20:47:40.600Z,49.80
2018-04-11T20:50:10.710Z,49.72
2018-04-11T20:52:39.097Z,49.75
2018-04-11T20:55:09.460Z,49.67
2018-04-11T20:57:37.858Z,49.45
2018-04-11T21:00:15.108Z,49.32
2018-04-11T21:02:43.500Z,49.31
2018-04-11T21:05:12.966Z,49.18
2018-04-11T21:07:41.340Z,49.17
2018-04-11T21:10:10.776Z,49.05
2018-04-11T21:12:39.161Z,48.98
2018-04-11T21:15:14.861Z,48.92
2018-04-11T21:17:43.259Z,49.00
2018-04-11T21:20:15.830Z,49.27
2018-04-11T21:22:44.213Z,49.46
2018-04-11T21:25:12.817Z,50.31
2018-04-11T21:27:41.326Z,50.96
2018-04-11T21:30:16.394Z,51.52
2018-04-11T21:32:44.898Z,51.39
2018-04-11T21:35:13.263Z,51.23
2018-04-11T21:37:41.649Z,51.15
2018-04-11T21:40:10.025Z,51.12
2018-04-11T21:42:38.411Z,51.21
2018-04-11T21:45:09.105Z,51.37
2018-04-11T21:47:37.706Z,51.40
2018-04-11T21:50:10.143Z,51.61
2018-04-11T21:52:38.575Z,51.86
2018-04-11T21:55:11.094Z,52.06
2018-04-11T21:57:39.468Z,51.81
2018-04-11T22:00:12.013Z,51.89
2018-04-11T22:02:40.408Z,51.90
2018-04-11T22:05:09.613Z,51.98
2018-04-11T22:07:38.000Z,52.08
2018-04-11T22:10:08.342Z,51.94
2018-04-11T22:12:36.751Z,52.05
2018-04-11T22:15:05.364Z,52.19
2018-04-11T22:17:37.725Z,52.37
2018-04-11T22:20:09.416Z,52.60
2018-04-11T22:22:37.816Z,52.75
2018-04-11T22:27:40.613Z,52.50
2018-04-11T22:30:12.141Z,52.28
2018-04-11T22:32:40.566Z,52.13
2018-04-11T22:35:12.544Z,52.18
2018-04-11T22:37:40.988Z,52.24
2018-04-11T22:40:16.282Z,52.62
2018-04-11T22:42:44.834Z,52.90
2018-04-11T22:45:13.252Z,52.98
2018-04-11T22:47:41.319Z,52.75
2018-04-11T22:50:09.739Z,52.38
2018-04-11T22:52:38.152Z,51.88
2018-04-11T22:55:10.853Z,51.50
2018-04-11T22:57:39.217Z,51.38
2018-04-11T23:00:09.235Z,51.54
2018-04-11T23:02:37.612Z,51.10
2018-04-11T23:05:06.085Z,50.95
2018-04-11T23:07:35.141Z,50.97
2018-04-11T23:10:03.291Z,51.03
2018-04-11T23:12:31.607Z,51.15
2018-04-11T23:15:00.530Z,51.45
2018-04-11T23:17:28.768Z,51.86
2018-04-11T23:19:57.845Z,52.18
2018-04-11T23:22:26.211Z,52.34
2018-04-11T23:24:54.338Z,52.46
2018-04-11T23:27:22.706Z,52.65
2018-04-11T23:29:51.090Z,52.81
2018-04-11T23:32:19.460Z,52.94
2018-04-11T23:34:48.453Z,52.97
2018-04-11T23:37:16.810Z,52.68
2018-04-11T23:39:45.168Z,52.65
2018-04-11T23:42:13.559Z,52.65
2018-04-11T23:44:41.961Z,52.63
2018-04-11T23:47:10.366Z,52.90
2018-04-11T23:49:38.749Z,52.88
2018-04-11T23:52:07.841Z,52.96
2018-04-11T23:54:36.205Z,53.07
2018-04-11T23:57:04.578Z,53.19
2018-04-11T23:59:32.937Z,53.40
